sensor_id;sensor_type;location;lat;lon;timestamp;P1;durP1;ratioP1;P2;durP2;ratioP2
19301;SDS011;9785;59.362;12.152;2023-02-01T00:00:55;1.30;;;1.20;;
19301;SDS011;9785;59.362;12.152;2023-02-01T00:03:25;1.87;;;1.20;;
19301;SDS011;9785;59.362;12.152;2023-02-01T00:05:54;1.30;;;1.20;;
19301;SDS011;9785;59.362;12.152;2023-02-01T00:08:23;1.40;;;1.30;;
19301;SDS011;9785;59.362;12.152;2023-02-01T00:10:57;1.40;;;1.37;;
19301;SDS011;9785;59.362;12.152;2023-02-01T00:13:27;2.07;;;1.40;;
19301;SDS011;9785;59.362;12.152;2023-02-01T00:16:04;1.37;;;1.27;;
19301;SDS011;9785;59.362;12.152;2023-02-01T00:18:35;1.40;;;1.30;;
19301;SDS011;9785;59.362;12.152;2023-02-01T00:21:04;2.13;;;1.50;;
19301;SDS011;9785;59.362;12.152;2023-02-01T00:23:32;1.23;;;1.17;;
19301;SDS011;9785;59.362;12.152;2023-02-01T00:26:02;1.40;;;1.20;;
19301;SDS011;9785;59.362;12.152;2023-02-01T00:28:31;1.47;;;1.37;;
19301;SDS011;9785;59.362;12.152;2023-02-01T00:31:00;2.37;;;1.40;;
19301;SDS011;9785;59.362;12.152;2023-02-01T00:33:32;2.07;;;1.50;;
19301;SDS011;9785;59.362;12.152;2023-02-01T00:36:03;2.43;;;1.40;;
19301;SDS011;9785;59.362;12.152;2023-02-01T00:38:32;1.50;;;1.47;;
19301;SDS011;9785;59.362;12.152;2023-02-01T00:41:02;1.33;;;1.27;;
19301;SDS011;9785;59.362;12.152;2023-02-01T00:43:31;1.40;;;1.23;;
19301;SDS011;9785;59.362;12.152;2023-02-01T00:45:59;1.30;;;1.30;;
19301;SDS011;9785;59.362;12.152;2023-02-01T00:48:28;1.33;;;1.23;;
19301;SDS011;9785;59.362;12.152;2023-02-01T00:50:58;1.10;;;1.10;;
19301;SDS011;9785;59.362;12.152;2023-02-01T00:53:29;3.03;;;1.40;;
19301;SDS011;9785;59.362;12.152;2023-02-01T00:55:57;1.10;;;1.10;;
19301;SDS011;9785;59.362;12.152;2023-02-01T00:58:26;3.17;;;1.10;;
19301;SDS011;9785;59.362;12.152;2023-02-01T01:01:02;1.83;;;1.40;;
19301;SDS011;9785;59.362;12.152;2023-02-01T01:03:31;1.40;;;1.30;;
19301;SDS011;9785;59.362;12.152;2023-02-01T01:06:01;1.37;;;1.20;;
19301;SDS011;9785;59.362;12.152;2023-02-01T01:08:31;1.30;;;1.20;;
19301;SDS011;9785;59.362;12.152;2023-02-01T01:11:03;1.07;;;1.07;;
19301;SDS011;9785;59.362;12.152;2023-02-01T01:13:32;1.87;;;1.10;;
19301;SDS011;9785;59.362;12.152;2023-02-01T01:16:00;1.10;;;1.10;;
19301;SDS011;9785;59.362;12.152;2023-02-01T01:18:30;1.37;;;1.30;;
19301;SDS011;9785;59.362;12.152;2023-02-01T01:20:59;1.27;;;1.13;;
19301;SDS011;9785;59.362;12.152;2023-02-01T01:23:28;1.00;;;1.00;;
19301;SDS011;9785;59.362;12.152;2023-02-01T01:25:58;1.47;;;1.20;;
19301;SDS011;9785;59.362;12.152;2023-02-01T01:28:27;1.63;;;1.23;;
19301;SDS011;9785;59.362;12.152;2023-02-01T01:30:55;1.50;;;1.00;;
19301;SDS011;9785;59.362;12.152;2023-02-01T01:33:24;0.80;;;0.80;;
19301;SDS011;9785;59.362;12.152;2023-02-01T01:35:53;0.90;;;0.90;;
19301;SDS011;9785;59.362;12.152;2023-02-01T01:38:21;1.43;;;0.93;;
19301;SDS011;9785;59.362;12.152;2023-02-01T01:40:50;1.10;;;1.10;;
19301;SDS011;9785;59.362;12.152;2023-02-01T01:43:20;1.67;;;1.10;;
19301;SDS011;9785;59.362;12.152;2023-02-01T01:45:50;1.20;;;1.17;;
19301;SDS011;9785;59.362;12.152;2023-02-01T01:48:20;1.63;;;1.10;;
19301;SDS011;9785;59.362;12.152;2023-02-01T01:50:50;0.90;;;0.90;;
19301;SDS011;9785;59.362;12.152;2023-02-01T01:53:20;1.53;;;1.10;;
19301;SDS011;9785;59.362;12.152;2023-02-01T01:55:51;1.00;;;1.00;;
19301;SDS011;9785;59.362;12.152;2023-02-01T01:58:23;0.90;;;0.90;;
19301;SDS011;9785;59.362;12.152;2023-02-01T02:00:53;1.53;;;1.00;;
19301;SDS011;9785;59.362;12.152;2023-02-01T02:03:22;2.60;;;1.00;;
19301;SDS011;9785;59.362;12.152;2023-02-01T02:05:51;1.07;;;0.97;;
19301;SDS011;9785;59.362;12.152;2023-02-01T02:08:21;0.90;;;0.90;;
19301;SDS011;9785;59.362;12.152;2023-02-01T02:10:52;1.87;;;1.10;;
19301;SDS011;9785;59.362;12.152;2023-02-01T02:13:29;1.10;;;1.10;;
19301;SDS011;9785;59.362;12.152;2023-02-01T02:16:04;0.83;;;0.83;;
19301;SDS011;9785;59.362;12.152;2023-02-01T02:18:37;1.20;;;1.10;;
19301;SDS011;9785;59.362;12.152;2023-02-01T02:21:14;1.70;;;0.70;;
19301;SDS011;9785;59.362;12.152;2023-02-01T02:26:35;1.00;;;1.00;;
19301;SDS011;9785;59.362;12.152;2023-02-01T02:29:15;1.90;;;0.90;;
19301;SDS011;9785;59.362;12.152;2023-02-01T02:31:54;0.90;;;0.90;;
19301;SDS011;9785;59.362;12.152;2023-02-01T02:34:29;1.03;;;1.03;;
19301;SDS011;9785;59.362;12.152;2023-02-01T02:37:01;1.00;;;0.90;;
19301;SDS011;9785;59.362;12.152;2023-02-01T02:39:36;0.90;;;0.90;;
19301;SDS011;9785;59.362;12.152;2023-02-01T02:42:09;2.17;;;1.00;;
19301;SDS011;9785;59.362;12.152;2023-02-01T02:44:59;1.93;;;1.03;;
19301;SDS011;9785;59.362;12.152;2023-02-01T02:47:50;1.93;;;1.10;;
19301;SDS011;9785;59.362;12.152;2023-02-01T02:50:23;1.10;;;1.10;;
19301;SDS011;9785;59.362;12.152;2023-02-01T02:53:12;2.37;;;1.30;;
19301;SDS011;9785;59.362;12.152;2023-02-01T02:55:59;1.90;;;1.30;;
19301;SDS011;9785;59.362;12.152;2023-02-01T02:58:45;1.40;;;1.30;;
19301;SDS011;9785;59.362;12.152;2023-02-01T03:01:32;1.07;;;1.07;;
19301;SDS011;9785;59.362;12.152;2023-02-01T03:04:18;0.90;;;0.90;;
19301;SDS011;9785;59.362;12.152;2023-02-01T03:06:49;1.30;;;1.00;;
19301;SDS011;9785;59.362;12.152;2023-02-01T03:09:19;2.07;;;1.00;;
19301;SDS011;9785;59.362;12.152;2023-02-01T03:11:49;1.40;;;1.00;;
19301;SDS011;9785;59.362;12.152;2023-02-01T03:14:38;0.80;;;0.80;;
19301;SDS011;9785;59.362;12.152;2023-02-01T03:17:10;1.07;;;1.07;;
19301;SDS011;9785;59.362;12.152;2023-02-01T03:19:40;1.90;;;1.20;;
19301;SDS011;9785;59.362;12.152;2023-02-01T03:22:17;1.63;;;1.10;;
19301;SDS011;9785;59.362;12.152;2023-02-01T03:24:49;1.77;;;1.30;;
19301;SDS011;9785;59.362;12.152;2023-02-01T03:27:20;1.40;;;1.23;;
19301;SDS011;9785;59.362;12.152;2023-02-01T03:29:51;1.83;;;1.53;;
19301;SDS011;9785;59.362;12.152;2023-02-01T03:32:20;3.30;;;1.37;;
19301;SDS011;9785;59.362;12.152;2023-02-01T03:34:49;3.07;;;1.70;;
19301;SDS011;9785;59.362;12.152;2023-02-01T03:37:22;2.80;;;1.50;;
19301;SDS011;9785;59.362;12.152;2023-02-01T03:39:53;4.40;;;1.90;;
19301;SDS011;9785;59.362;12.152;2023-02-01T03:42:26;3.17;;;1.40;;
19301;SDS011;9785;59.362;12.152;2023-02-01T03:44:57;1.60;;;1.50;;
19301;SDS011;9785;59.362;12.152;2023-02-01T03:47:29;3.93;;;1.40;;
19301;SDS011;9785;59.362;12.152;2023-02-01T03:50:00;4.17;;;1.50;;
19301;SDS011;9785;59.362;12.152;2023-02-01T03:52:32;1.80;;;1.60;;
19301;SDS011;9785;59.362;12.152;2023-02-01T03:55:03;2.03;;;1.33;;
19301;SDS011;9785;59.362;12.152;2023-02-01T03:57:33;1.70;;;1.33;;
19301;SDS011;9785;59.362;12.152;2023-02-01T04:00:05;2.37;;;1.30;;
19301;SDS011;9785;59.362;12.152;2023-02-01T04:02:35;2.27;;;1.40;;
19301;SDS011;9785;59.362;12.152;2023-02-01T04:05:04;1.40;;;1.30;;
19301;SDS011;9785;59.362;12.152;2023-02-01T04:07:34;3.73;;;1.20;;
19301;SDS011;9785;59.362;12.152;2023-02-01T04:10:03;2.47;;;1.30;;
19301;SDS011;9785;59.362;12.152;2023-02-01T04:12:32;3.37;;;1.57;;
19301;SDS011;9785;59.362;12.152;2023-02-01T04:15:00;1.90;;;1.50;;
19301;SDS011;9785;59.362;12.152;2023-02-01T04:17:29;3.23;;;1.33;;
19301;SDS011;9785;59.362;12.152;2023-02-01T04:19:58;1.53;;;1.40;;
19301;SDS011;9785;59.362;12.152;2023-02-01T04:22:27;2.23;;;1.53;;
19301;SDS011;9785;59.362;12.152;2023-02-01T04:24:57;3.50;;;1.70;;
19301;SDS011;9785;59.362;12.152;2023-02-01T04:27:25;3.47;;;1.90;;
19301;SDS011;9785;59.362;12.152;2023-02-01T04:29:54;3.27;;;1.50;;
19301;SDS011;9785;59.362;12.152;2023-02-01T04:32:24;3.77;;;1.43;;
19301;SDS011;9785;59.362;12.152;2023-02-01T04:34:52;2.07;;;1.47;;
19301;SDS011;9785;59.362;12.152;2023-02-01T04:37:20;1.40;;;1.30;;
19301;SDS011;9785;59.362;12.152;2023-02-01T04:39:49;3.57;;;1.40;;
19301;SDS011;9785;59.362;12.152;2023-02-01T04:42:19;2.13;;;1.23;;
19301;SDS011;9785;59.362;12.152;2023-02-01T04:44:48;1.40;;;1.30;;
19301;SDS011;9785;59.362;12.152;2023-02-01T04:47:16;4.63;;;1.30;;
19301;SDS011;9785;59.362;12.152;2023-02-01T04:49:45;4.27;;;1.47;;
19301;SDS011;9785;59.362;12.152;2023-02-01T04:52:13;1.53;;;1.37;;
19301;SDS011;9785;59.362;12.152;2023-02-01T04:54:42;6.43;;;1.60;;
19301;SDS011;9785;59.362;12.152;2023-02-01T04:57:10;1.67;;;1.37;;
19301;SDS011;9785;59.362;12.152;2023-02-01T04:59:41;3.53;;;1.50;;
19301;SDS011;9785;59.362;12.152;2023-02-01T05:02:09;4.33;;;1.50;;
19301;SDS011;9785;59.362;12.152;2023-02-01T05:04:38;3.10;;;1.30;;
19301;SDS011;9785;59.362;12.152;2023-02-01T05:07:06;2.00;;;1.50;;
19301;SDS011;9785;59.362;12.152;2023-02-01T05:09:35;3.03;;;1.37;;
19301;SDS011;9785;59.362;12.152;2023-02-01T05:12:05;3.53;;;1.60;;
19301;SDS011;9785;59.362;12.152;2023-02-01T05:14:53;2.03;;;1.50;;
19301;SDS011;9785;59.362;12.152;2023-02-01T05:17:22;1.40;;;1.23;;
19301;SDS011;9785;59.362;12.152;2023-02-01T05:19:50;1.93;;;1.40;;
19301;SDS011;9785;59.362;12.152;2023-02-01T05:22:19;3.80;;;1.50;;
19301;SDS011;9785;59.362;12.152;2023-02-01T05:24:47;5.43;;;1.50;;
19301;SDS011;9785;59.362;12.152;2023-02-01T05:27:16;3.13;;;1.67;;
19301;SDS011;9785;59.362;12.152;2023-02-01T05:29:44;4.37;;;1.60;;
19301;SDS011;9785;59.362;12.152;2023-02-01T05:32:14;6.00;;;1.70;;
19301;SDS011;9785;59.362;12.152;2023-02-01T05:34:48;4.50;;;1.27;;
19301;SDS011;9785;59.362;12.152;2023-02-01T05:37:17;5.80;;;1.60;;
19301;SDS011;9785;59.362;12.152;2023-02-01T05:39:45;3.17;;;1.87;;
19301;SDS011;9785;59.362;12.152;2023-02-01T05:42:14;2.07;;;1.50;;
19301;SDS011;9785;59.362;12.152;2023-02-01T05:44:43;2.13;;;1.43;;
19301;SDS011;9785;59.362;12.152;2023-02-01T05:47:11;1.83;;;1.33;;
19301;SDS011;9785;59.362;12.152;2023-02-01T05:49:41;5.17;;;1.73;;
19301;SDS011;9785;59.362;12.152;2023-02-01T05:52:10;2.47;;;1.17;;
19301;SDS011;9785;59.362;12.152;2023-02-01T05:54:38;4.03;;;1.40;;
19301;SDS011;9785;59.362;12.152;2023-02-01T05:57:07;1.83;;;1.50;;
19301;SDS011;9785;59.362;12.152;2023-02-01T05:59:36;2.30;;;1.40;;
19301;SDS011;9785;59.362;12.152;2023-02-01T06:02:07;1.40;;;1.30;;
19301;SDS011;9785;59.362;12.152;2023-02-01T06:04:36;1.70;;;1.23;;
19301;SDS011;9785;59.362;12.152;2023-02-01T06:07:06;5.70;;;1.17;;
19301;SDS011;9785;59.362;12.152;2023-02-01T06:09:36;2.93;;;1.43;;
19301;SDS011;9785;59.362;12.152;2023-02-01T06:12:05;2.73;;;1.53;;
19301;SDS011;9785;59.362;12.152;2023-02-01T06:14:34;2.33;;;1.40;;
19301;SDS011;9785;59.362;12.152;2023-02-01T06:17:03;1.20;;;1.10;;
19301;SDS011;9785;59.362;12.152;2023-02-01T06:19:33;2.10;;;1.10;;
19301;SDS011;9785;59.362;12.152;2023-02-01T06:22:01;3.60;;;1.60;;
19301;SDS011;9785;59.362;12.152;2023-02-01T06:24:33;2.70;;;1.30;;
19301;SDS011;9785;59.362;12.152;2023-02-01T06:27:02;1.50;;;1.40;;
19301;SDS011;9785;59.362;12.152;2023-02-01T06:29:31;3.03;;;1.30;;
19301;SDS011;9785;59.362;12.152;2023-02-01T06:31:59;3.33;;;1.50;;
19301;SDS011;9785;59.362;12.152;2023-02-01T06:34:28;3.83;;;1.40;;
19301;SDS011;9785;59.362;12.152;2023-02-01T06:36:56;3.53;;;1.30;;
19301;SDS011;9785;59.362;12.152;2023-02-01T06:39:25;3.67;;;1.40;;
19301;SDS011;9785;59.362;12.152;2023-02-01T06:41:56;1.63;;;1.53;;
19301;SDS011;9785;59.362;12.152;2023-02-01T06:44:24;3.03;;;1.67;;
19301;SDS011;9785;59.362;12.152;2023-02-01T06:46:53;4.87;;;1.60;;
19301;SDS011;9785;59.362;12.152;2023-02-01T06:49:22;1.90;;;1.43;;
19301;SDS011;9785;59.362;12.152;2023-02-01T06:51:50;1.77;;;1.50;;
19301;SDS011;9785;59.362;12.152;2023-02-01T06:54:19;4.17;;;1.40;;
19301;SDS011;9785;59.362;12.152;2023-02-01T06:56:47;2.93;;;1.50;;
19301;SDS011;9785;59.362;12.152;2023-02-01T06:59:17;2.67;;;1.77;;
19301;SDS011;9785;59.362;12.152;2023-02-01T07:01:46;1.60;;;1.50;;
19301;SDS011;9785;59.362;12.152;2023-02-01T07:04:15;2.17;;;1.97;;
19301;SDS011;9785;59.362;12.152;2023-02-01T07:06:43;5.43;;;1.70;;
19301;SDS011;9785;59.362;12.152;2023-02-01T07:09:12;2.23;;;1.53;;
19301;SDS011;9785;59.362;12.152;2023-02-01T07:11:40;1.70;;;1.60;;
19301;SDS011;9785;59.362;12.152;2023-02-01T07:14:10;3.87;;;1.83;;
19301;SDS011;9785;59.362;12.152;2023-02-01T07:16:40;3.93;;;1.47;;
19301;SDS011;9785;59.362;12.152;2023-02-01T07:19:09;4.20;;;1.73;;
19301;SDS011;9785;59.362;12.152;2023-02-01T07:21:37;5.13;;;2.13;;
19301;SDS011;9785;59.362;12.152;2023-02-01T07:24:06;1.77;;;1.63;;
19301;SDS011;9785;59.362;12.152;2023-02-01T07:26:34;5.43;;;2.57;;
19301;SDS011;9785;59.362;12.152;2023-02-01T07:29:03;4.60;;;2.47;;
19301;SDS011;9785;59.362;12.152;2023-02-01T07:31:32;7.20;;;2.20;;
19301;SDS011;9785;59.362;12.152;2023-02-01T07:34:02;3.60;;;2.10;;
19301;SDS011;9785;59.362;12.152;2023-02-01T07:36:30;4.70;;;2.53;;
19301;SDS011;9785;59.362;12.152;2023-02-01T07:39:00;5.03;;;2.47;;
19301;SDS011;9785;59.362;12.152;2023-02-01T07:41:29;5.07;;;2.13;;
19301;SDS011;9785;59.362;12.152;2023-02-01T07:43:57;1.90;;;1.70;;
19301;SDS011;9785;59.362;12.152;2023-02-01T07:46:26;4.30;;;1.43;;
19301;SDS011;9785;59.362;12.152;2023-02-01T07:48:55;3.40;;;2.20;;
19301;SDS011;9785;59.362;12.152;2023-02-01T07:51:25;2.67;;;1.80;;
19301;SDS011;9785;59.362;12.152;2023-02-01T07:53:53;1.93;;;1.50;;
19301;SDS011;9785;59.362;12.152;2023-02-01T07:56:22;2.00;;;1.80;;
19301;SDS011;9785;59.362;12.152;2023-02-01T07:58:52;3.00;;;2.03;;
19301;SDS011;9785;59.362;12.152;2023-02-01T08:01:21;3.60;;;2.10;;
19301;SDS011;9785;59.362;12.152;2023-02-01T08:03:53;2.77;;;1.17;;
19301;SDS011;9785;59.362;12.152;2023-02-01T08:06:22;2.43;;;1.70;;
19301;SDS011;9785;59.362;12.152;2023-02-01T08:08:52;3.03;;;1.70;;
19301;SDS011;9785;59.362;12.152;2023-02-01T08:11:21;3.73;;;1.70;;
19301;SDS011;9785;59.362;12.152;2023-02-01T08:13:50;3.67;;;1.67;;
19301;SDS011;9785;59.362;12.152;2023-02-01T08:16:20;3.93;;;1.70;;
19301;SDS011;9785;59.362;12.152;2023-02-01T08:18:49;3.60;;;1.83;;
19301;SDS011;9785;59.362;12.152;2023-02-01T08:21:19;3.67;;;1.90;;
19301;SDS011;9785;59.362;12.152;2023-02-01T08:23:48;3.03;;;1.80;;
19301;SDS011;9785;59.362;12.152;2023-02-01T08:26:19;5.30;;;2.10;;
19301;SDS011;9785;59.362;12.152;2023-02-01T08:28:49;4.87;;;2.07;;
19301;SDS011;9785;59.362;12.152;2023-02-01T08:31:18;2.73;;;2.30;;
19301;SDS011;9785;59.362;12.152;2023-02-01T08:33:48;2.27;;;1.77;;
19301;SDS011;9785;59.362;12.152;2023-02-01T08:36:17;3.00;;;2.30;;
19301;SDS011;9785;59.362;12.152;2023-02-01T08:38:45;3.40;;;2.63;;
19301;SDS011;9785;59.362;12.152;2023-02-01T08:41:14;3.20;;;1.83;;
19301;SDS011;9785;59.362;12.152;2023-02-01T08:43:45;2.57;;;1.90;;
19301;SDS011;9785;59.362;12.152;2023-02-01T08:46:15;4.60;;;2.07;;
19301;SDS011;9785;59.362;12.152;2023-02-01T08:48:44;2.50;;;1.87;;
19301;SDS011;9785;59.362;12.152;2023-02-01T08:51:14;3.83;;;1.90;;
19301;SDS011;9785;59.362;12.152;2023-02-01T08:53:43;4.33;;;1.73;;
19301;SDS011;9785;59.362;12.152;2023-02-01T08:56:12;3.37;;;1.60;;
19301;SDS011;9785;59.362;12.152;2023-02-01T08:58:41;3.17;;;1.40;;
19301;SDS011;9785;59.362;12.152;2023-02-01T09:01:13;1.60;;;1.50;;
19301;SDS011;9785;59.362;12.152;2023-02-01T09:03:43;3.63;;;1.90;;
19301;SDS011;9785;59.362;12.152;2023-02-01T09:06:13;5.10;;;2.10;;
19301;SDS011;9785;59.362;12.152;2023-02-01T09:08:42;1.87;;;1.60;;
19301;SDS011;9785;59.362;12.152;2023-02-01T09:11:12;5.70;;;1.90;;
19301;SDS011;9785;59.362;12.152;2023-02-01T09:13:41;4.40;;;2.00;;
19301;SDS011;9785;59.362;12.152;2023-02-01T09:16:09;4.30;;;2.07;;
19301;SDS011;9785;59.362;12.152;2023-02-01T09:18:39;2.73;;;1.80;;
19301;SDS011;9785;59.362;12.152;2023-02-01T09:21:28;3.83;;;1.90;;
19301;SDS011;9785;59.362;12.152;2023-02-01T09:23:58;1.50;;;1.40;;
19301;SDS011;9785;59.362;12.152;2023-02-01T09:26:27;1.60;;;1.50;;
19301;SDS011;9785;59.362;12.152;2023-02-01T09:28:58;1.90;;;1.40;;
19301;SDS011;9785;59.362;12.152;2023-02-01T09:31:26;3.83;;;2.07;;
19301;SDS011;9785;59.362;12.152;2023-02-01T09:33:56;3.47;;;2.27;;
19301;SDS011;9785;59.362;12.152;2023-02-01T09:36:25;4.30;;;2.70;;
19301;SDS011;9785;59.362;12.152;2023-02-01T09:38:56;4.83;;;2.80;;
19301;SDS011;9785;59.362;12.152;2023-02-01T09:41:34;3.80;;;2.30;;
19301;SDS011;9785;59.362;12.152;2023-02-01T09:44:07;3.77;;;2.50;;
19301;SDS011;9785;59.362;12.152;2023-02-01T09:46:38;4.90;;;2.70;;
19301;SDS011;9785;59.362;12.152;2023-02-01T09:49:10;4.53;;;2.73;;
19301;SDS011;9785;59.362;12.152;2023-02-01T09:51:41;5.70;;;2.50;;
19301;SDS011;9785;59.362;12.152;2023-02-01T09:54:12;5.10;;;2.43;;
19301;SDS011;9785;59.362;12.152;2023-02-01T09:56:44;3.73;;;2.10;;
19301;SDS011;9785;59.362;12.152;2023-02-01T09:59:19;4.40;;;2.10;;
19301;SDS011;9785;59.362;12.152;2023-02-01T10:01:50;1.47;;;1.33;;
19301;SDS011;9785;59.362;12.152;2023-02-01T10:04:20;1.70;;;1.60;;
19301;SDS011;9785;59.362;12.152;2023-02-01T10:06:57;4.13;;;1.20;;
19301;SDS011;9785;59.362;12.152;2023-02-01T10:09:36;2.43;;;1.30;;
19301;SDS011;9785;59.362;12.152;2023-02-01T10:14:58;3.30;;;1.50;;
19301;SDS011;9785;59.362;12.152;2023-02-01T10:17:33;6.07;;;1.40;;
19301;SDS011;9785;59.362;12.152;2023-02-01T10:20:09;4.03;;;1.33;;
19301;SDS011;9785;59.362;12.152;2023-02-01T10:22:42;2.60;;;1.27;;
19301;SDS011;9785;59.362;12.152;2023-02-01T10:25:32;2.13;;;1.10;;
19301;SDS011;9785;59.362;12.152;2023-02-01T10:28:04;3.50;;;1.67;;
19301;SDS011;9785;59.362;12.152;2023-02-01T10:30:34;3.23;;;1.40;;
19301;SDS011;9785;59.362;12.152;2023-02-01T10:33:12;1.30;;;1.20;;
19301;SDS011;9785;59.362;12.152;2023-02-01T10:35:45;3.57;;;1.27;;
19301;SDS011;9785;59.362;12.152;2023-02-01T10:38:17;1.30;;;1.20;;
19301;SDS011;9785;59.362;12.152;2023-02-01T10:40:47;1.30;;;1.17;;
19301;SDS011;9785;59.362;12.152;2023-02-01T10:43:16;1.83;;;1.30;;
19301;SDS011;9785;59.362;12.152;2023-02-01T10:45:45;1.97;;;1.60;;
19301;SDS011;9785;59.362;12.152;2023-02-01T10:48:14;3.50;;;1.40;;
19301;SDS011;9785;59.362;12.152;2023-02-01T10:50:46;2.73;;;1.30;;
19301;SDS011;9785;59.362;12.152;2023-02-01T10:53:18;3.13;;;1.47;;
19301;SDS011;9785;59.362;12.152;2023-02-01T10:55:49;3.43;;;1.60;;
19301;SDS011;9785;59.362;12.152;2023-02-01T10:58:18;4.23;;;1.67;;
19301;SDS011;9785;59.362;12.152;2023-02-01T11:00:48;2.97;;;1.70;;
19301;SDS011;9785;59.362;12.152;2023-02-01T11:06:08;2.03;;;1.20;;
19301;SDS011;9785;59.362;12.152;2023-02-01T11:08:45;2.17;;;1.27;;
19301;SDS011;9785;59.362;12.152;2023-02-01T11:11:14;1.40;;;1.30;;
19301;SDS011;9785;59.362;12.152;2023-02-01T11:13:45;1.50;;;1.07;;
19301;SDS011;9785;59.362;12.152;2023-02-01T11:16:19;2.00;;;0.90;;
19301;SDS011;9785;59.362;12.152;2023-02-01T11:18:53;2.33;;;1.07;;
19301;SDS011;9785;59.362;12.152;2023-02-01T11:21:23;2.17;;;1.00;;
19301;SDS011;9785;59.362;12.152;2023-02-01T11:23:52;3.77;;;0.90;;
19301;SDS011;9785;59.362;12.152;2023-02-01T11:26:21;1.20;;;0.80;;
19301;SDS011;9785;59.362;12.152;2023-02-01T11:28:52;1.40;;;0.77;;
19301;SDS011;9785;59.362;12.152;2023-02-01T11:31:21;2.80;;;0.90;;
19301;SDS011;9785;59.362;12.152;2023-02-01T11:33:51;1.27;;;0.80;;
19301;SDS011;9785;59.362;12.152;2023-02-01T11:36:22;0.93;;;0.83;;
19301;SDS011;9785;59.362;12.152;2023-02-01T11:38:55;0.77;;;0.77;;
19301;SDS011;9785;59.362;12.152;2023-02-01T11:41:40;0.70;;;0.70;;
19301;SDS011;9785;59.362;12.152;2023-02-01T11:44:18;0.80;;;0.80;;
19301;SDS011;9785;59.362;12.152;2023-02-01T11:46:48;0.80;;;0.80;;
19301;SDS011;9785;59.362;12.152;2023-02-01T11:49:21;0.90;;;0.90;;
19301;SDS011;9785;59.362;12.152;2023-02-01T11:51:54;2.57;;;0.83;;
19301;SDS011;9785;59.362;12.152;2023-02-01T11:54:31;0.43;;;0.43;;
19301;SDS011;9785;59.362;12.152;2023-02-01T11:57:09;1.90;;;0.60;;
19301;SDS011;9785;59.362;12.152;2023-02-01T11:59:51;1.63;;;0.80;;
19301;SDS011;9785;59.362;12.152;2023-02-01T12:05:19;0.30;;;0.30;;
19301;SDS011;9785;59.362;12.152;2023-02-01T12:08:03;0.67;;;0.53;;
19301;SDS011;9785;59.362;12.152;2023-02-01T12:10:38;0.30;;;0.30;;
19301;SDS011;9785;59.362;12.152;2023-02-01T12:13:13;0.50;;;0.50;;
19301;SDS011;9785;59.362;12.152;2023-02-01T12:15:50;1.07;;;0.40;;
19301;SDS011;9785;59.362;12.152;2023-02-01T12:21:10;1.17;;;0.57;;
19301;SDS011;9785;59.362;12.152;2023-02-01T12:23:55;0.50;;;0.50;;
19301;SDS011;9785;59.362;12.152;2023-02-01T12:26:37;1.70;;;0.40;;
19301;SDS011;9785;59.362;12.152;2023-02-01T12:29:11;0.60;;;0.60;;
19301;SDS011;9785;59.362;12.152;2023-02-01T12:31:43;0.60;;;0.60;;
19301;SDS011;9785;59.362;12.152;2023-02-01T12:34:19;1.80;;;0.50;;
19301;SDS011;9785;59.362;12.152;2023-02-01T12:36:56;1.03;;;0.60;;
19301;SDS011;9785;59.362;12.152;2023-02-01T12:39:29;0.70;;;0.60;;
19301;SDS011;9785;59.362;12.152;2023-02-01T12:42:02;0.50;;;0.50;;
19301;SDS011;9785;59.362;12.152;2023-02-01T12:44:37;0.47;;;0.43;;
19301;SDS011;9785;59.362;12.152;2023-02-01T12:47:07;0.50;;;0.50;;
19301;SDS011;9785;59.362;12.152;2023-02-01T12:49:40;0.40;;;0.40;;
19301;SDS011;9785;59.362;12.152;2023-02-01T12:52:10;0.63;;;0.60;;
19301;SDS011;9785;59.362;12.152;2023-02-01T12:54:41;0.67;;;0.60;;
19301;SDS011;9785;59.362;12.152;2023-02-01T12:57:12;0.40;;;0.40;;
19301;SDS011;9785;59.362;12.152;2023-02-01T12:59:42;0.40;;;0.40;;
19301;SDS011;9785;59.362;12.152;2023-02-01T13:02:14;0.40;;;0.40;;
19301;SDS011;9785;59.362;12.152;2023-02-01T13:04:49;0.30;;;0.30;;
19301;SDS011;9785;59.362;12.152;2023-02-01T13:07:20;1.60;;;0.40;;
19301;SDS011;9785;59.362;12.152;2023-02-01T13:09:51;0.47;;;0.40;;
19301;SDS011;9785;59.362;12.152;2023-02-01T13:12:24;0.40;;;0.40;;
19301;SDS011;9785;59.362;12.152;2023-02-01T13:14:56;0.50;;;0.50;;
19301;SDS011;9785;59.362;12.152;2023-02-01T13:17:27;0.43;;;0.40;;
19301;SDS011;9785;59.362;12.152;2023-02-01T13:19:59;3.40;;;0.43;;
19301;SDS011;9785;59.362;12.152;2023-02-01T13:22:30;2.73;;;0.50;;
19301;SDS011;9785;59.362;12.152;2023-02-01T13:25:00;0.40;;;0.40;;
19301;SDS011;9785;59.362;12.152;2023-02-01T13:27:31;0.63;;;0.37;;
19301;SDS011;9785;59.362;12.152;2023-02-01T13:30:02;0.50;;;0.37;;
19301;SDS011;9785;59.362;12.152;2023-02-01T13:32:39;0.50;;;0.50;;
19301;SDS011;9785;59.362;12.152;2023-02-01T13:35:40;0.40;;;0.40;;
19301;SDS011;9785;59.362;12.152;2023-02-01T13:38:18;1.90;;;0.63;;
19301;SDS011;9785;59.362;12.152;2023-02-01T13:40:54;0.40;;;0.40;;
19301;SDS011;9785;59.362;12.152;2023-02-01T13:43:30;0.83;;;0.40;;
19301;SDS011;9785;59.362;12.152;2023-02-01T13:46:02;0.50;;;0.50;;
19301;SDS011;9785;59.362;12.152;2023-02-01T13:48:33;1.17;;;0.47;;
19301;SDS011;9785;59.362;12.152;2023-02-01T13:51:04;0.73;;;0.20;;
19301;SDS011;9785;59.362;12.152;2023-02-01T13:53:33;0.87;;;0.50;;
19301;SDS011;9785;59.362;12.152;2023-02-01T13:56:06;0.50;;;0.40;;
19301;SDS011;9785;59.362;12.152;2023-02-01T13:58:38;0.40;;;0.40;;
19301;SDS011;9785;59.362;12.152;2023-02-01T14:03:54;1.13;;;0.73;;
19301;SDS011;9785;59.362;12.152;2023-02-01T14:06:35;0.90;;;0.30;;
19301;SDS011;9785;59.362;12.152;2023-02-01T14:09:16;1.07;;;0.50;;
19301;SDS011;9785;59.362;12.152;2023-02-01T14:11:46;0.20;;;0.20;;
19301;SDS011;9785;59.362;12.152;2023-02-01T14:23:01;0.30;;;0.30;;
19301;SDS011;9785;59.362;12.152;2023-02-01T14:25:32;0.20;;;0.20;;
19301;SDS011;9785;59.362;12.152;2023-02-01T14:28:00;0.80;;;0.27;;
19301;SDS011;9785;59.362;12.152;2023-02-01T14:30:29;0.83;;;0.40;;
19301;SDS011;9785;59.362;12.152;2023-02-01T14:32:58;0.83;;;0.27;;
19301;SDS011;9785;59.362;12.152;2023-02-01T14:35:27;1.50;;;0.30;;
19301;SDS011;9785;59.362;12.152;2023-02-01T14:37:58;0.60;;;0.30;;
19301;SDS011;9785;59.362;12.152;2023-02-01T14:40:30;0.10;;;0.10;;
19301;SDS011;9785;59.362;12.152;2023-02-01T14:43:00;0.33;;;0.33;;
19301;SDS011;9785;59.362;12.152;2023-02-01T14:48:41;0.20;;;0.20;;
19301;SDS011;9785;59.362;12.152;2023-02-01T14:51:11;0.20;;;0.20;;
19301;SDS011;9785;59.362;12.152;2023-02-01T14:53:41;0.93;;;0.20;;
19301;SDS011;9785;59.362;12.152;2023-02-01T14:56:13;0.10;;;0.10;;
19301;SDS011;9785;59.362;12.152;2023-02-01T14:58:44;0.00;;;0.00;;
19301;SDS011;9785;59.362;12.152;2023-02-01T15:01:17;0.10;;;0.10;;
19301;SDS011;9785;59.362;12.152;2023-02-01T15:03:48;0.30;;;0.10;;
19301;SDS011;9785;59.362;12.152;2023-02-01T15:06:26;0.27;;;0.10;;
19301;SDS011;9785;59.362;12.152;2023-02-01T15:08:57;0.10;;;0.10;;
19301;SDS011;9785;59.362;12.152;2023-02-01T15:11:28;0.00;;;0.00;;
19301;SDS011;9785;59.362;12.152;2023-02-01T15:13:56;0.10;;;0.10;;
19301;SDS011;9785;59.362;12.152;2023-02-01T15:16:26;1.30;;;0.10;;
19301;SDS011;9785;59.362;12.152;2023-02-01T15:21:42;0.17;;;0.17;;
19301;SDS011;9785;59.362;12.152;2023-02-01T15:24:11;0.17;;;0.17;;
19301;SDS011;9785;59.362;12.152;2023-02-01T15:26:41;0.10;;;0.10;;
19301;SDS011;9785;59.362;12.152;2023-02-01T15:29:11;0.10;;;0.10;;
19301;SDS011;9785;59.362;12.152;2023-02-01T15:31:40;0.10;;;0.10;;
19301;SDS011;9785;59.362;12.152;2023-02-01T15:34:11;0.10;;;0.00;;
19301;SDS011;9785;59.362;12.152;2023-02-01T15:36:40;0.70;;;0.30;;
19301;SDS011;9785;59.362;12.152;2023-02-01T15:39:27;0.73;;;0.20;;
19301;SDS011;9785;59.362;12.152;2023-02-01T15:42:00;3.23;;;2.97;;
19301;SDS011;9785;59.362;12.152;2023-02-01T15:44:33;2.17;;;2.07;;